createdAt,value
2023-04-17T00:01:20.078Z,10.40
2023-04-17T00:06:24.029Z,10.40
2023-04-17T00:11:26.878Z,10.40
2023-04-17T00:16:30.994Z,10.30
2023-04-17T00:21:33.708Z,10.30
2023-04-17T00:26:36.356Z,10.40
2023-04-17T00:31:40.430Z,10.30
2023-04-17T00:36:43.258Z,10.20
2023-04-17T00:41:45.936Z,10.20
2023-04-17T00:46:50.199Z,10.20
2023-04-17T00:51:53.255Z,10.30
2023-04-17T00:56:58.164Z,10.30
2023-04-17T01:02:02.660Z,10.40
2023-04-17T01:07:05.415Z,10.20
2023-04-17T01:12:21.349Z,10.20
2023-04-17T01:17:27.755Z,10.10
2023-04-17T01:22:30.757Z,10.00
2023-04-17T01:27:35.162Z,10.10
2023-04-17T01:32:38.799Z,10.00
2023-04-17T01:37:41.563Z,10.10
2023-04-17T01:42:45.601Z,10.10
2023-04-17T01:47:48.440Z,10.10
2023-04-17T01:52:51.139Z,10.10
2023-04-17T01:57:55.209Z,10.10
2023-04-17T02:02:58.058Z,10.00
2023-04-17T02:08:00.909Z,10.00
2023-04-17T02:13:05.033Z,10.00
2023-04-17T02:18:08.169Z,10.00
2023-04-17T02:23:12.105Z,10.00
2023-04-17T02:28:16.535Z,10.00
2023-04-17T02:33:19.229Z,9.90
2023-04-17T02:38:21.932Z,9.90
2023-04-17T02:43:26.002Z,9.80
2023-04-17T02:48:28.677Z,9.70
2023-04-17T02:53:31.345Z,9.70
2023-04-17T02:58:35.363Z,9.70
2023-04-17T03:03:42.021Z,9.70
2023-04-17T03:08:45.368Z,9.70
2023-04-17T03:13:50.247Z,9.70
2023-04-17T03:18:52.950Z,9.70
2023-04-17T03:23:55.750Z,9.70
2023-04-17T03:28:59.820Z,9.70
2023-04-17T03:34:02.452Z,9.70
2023-04-17T03:39:05.200Z,9.80
2023-04-17T03:44:09.894Z,9.70
2023-04-17T03:49:12.886Z,9.60
2023-04-17T03:54:15.733Z,9.70
2023-04-17T03:59:19.732Z,9.60
2023-04-17T04:04:22.646Z,9.60
2023-04-17T04:09:26.130Z,9.60
2023-04-17T04:14:30.084Z,9.50
2023-04-17T04:19:32.976Z,9.50
2023-04-17T04:24:35.622Z,9.40
2023-04-17T04:29:48.568Z,9.50
2023-04-17T04:34:51.740Z,9.50
2023-04-17T04:40:02.051Z,9.40
2023-04-17T04:45:07.378Z,9.50
2023-04-17T04:50:12.939Z,9.60
2023-04-17T04:55:15.571Z,9.60
2023-04-17T05:00:20.088Z,9.70
2023-04-17T05:05:22.971Z,9.70
2023-04-17T05:10:40.329Z,9.60
2023-04-17T05:21:22.449Z,9.60
2023-04-17T05:26:32.337Z,9.70
2023-04-17T05:31:49.698Z,9.80
2023-04-17T05:36:58.845Z,9.90
2023-04-17T05:42:06.616Z,9.90
2023-04-17T05:47:19.711Z,10.00
2023-04-17T05:52:27.495Z,10.10
2023-04-17T05:57:30.387Z,10.20
2023-04-17T06:02:34.470Z,10.20
2023-04-17T06:07:38.428Z,10.20
2023-04-17T06:12:41.184Z,10.20
2023-04-17T06:17:45.239Z,10.20
2023-04-17T06:22:47.950Z,10.20
2023-04-17T06:27:50.633Z,10.20
2023-04-17T06:32:54.754Z,10.10
2023-04-17T06:37:57.502Z,10.20
2023-04-17T06:43:00.457Z,10.30
2023-04-17T06:48:04.628Z,10.60
2023-04-17T06:53:07.345Z,10.70
2023-04-17T06:58:10.129Z,10.60
2023-04-17T07:03:14.960Z,10.50
2023-04-17T07:08:19.391Z,10.60
2023-04-17T07:13:22.069Z,10.70
2023-04-17T07:18:26.865Z,10.90
2023-04-17T07:23:29.562Z,11.20
2023-04-17T07:28:32.287Z,11.20
2023-04-17T07:33:38.226Z,11.20
2023-04-17T07:38:42.878Z,11.10
2023-04-17T07:43:46.864Z,11.10
2023-04-17T07:48:53.812Z,11.30
2023-04-17T07:53:56.661Z,11.40
2023-04-17T07:58:59.923Z,11.50
2023-04-17T08:04:04.140Z,11.70
2023-04-17T08:09:07.311Z,11.70
2023-04-17T08:14:11.539Z,11.70
2023-04-17T08:19:15.766Z,11.90
2023-04-17T08:24:19.923Z,12.00
2023-04-17T08:29:23.005Z,12.50
2023-04-17T08:34:27.298Z,13.10
2023-04-17T08:39:30.113Z,13.30
2023-04-17T08:44:32.872Z,13.60
2023-04-17T08:49:37.923Z,12.80
2023-04-17T08:54:40.617Z,12.30
2023-04-17T08:59:43.357Z,12.40
2023-04-17T09:04:48.479Z,12.80
2023-04-17T09:09:52.449Z,13.10
2023-04-17T09:14:55.140Z,12.90
2023-04-17T09:20:07.933Z,12.70
2023-04-17T09:25:23.181Z,12.90
2023-04-17T09:30:27.115Z,13.10
2023-04-17T09:35:32.151Z,13.50
2023-04-17T09:40:39.051Z,13.80
2023-04-17T09:45:42.785Z,14.30
2023-04-17T09:50:47.725Z,15.20
2023-04-17T09:55:53.169Z,16.00
2023-04-17T10:00:56.373Z,15.10
2023-04-17T10:06:01.460Z,14.20
2023-04-17T10:11:06.829Z,14.30
2023-04-17T10:16:09.724Z,15.00
2023-04-17T10:21:25.153Z,15.80
2023-04-17T10:26:45.921Z,15.70
2023-04-17T10:32:25.877Z,15.00
2023-04-17T10:38:04.871Z,14.60
2023-04-17T10:43:14.264Z,15.20
2023-04-17T10:48:22.141Z,16.00
2023-04-17T10:53:41.344Z,16.70
2023-04-17T10:58:57.954Z,16.50
2023-04-17T11:04:00.794Z,15.80
2023-04-17T11:09:09.166Z,15.60
2023-04-17T11:14:14.836Z,15.50
2023-04-17T11:19:21.280Z,15.70
2023-04-17T11:24:26.929Z,15.50
2023-04-17T11:29:30.362Z,15.00
2023-04-17T11:34:33.105Z,14.00
2023-04-17T11:39:37.186Z,13.30
2023-04-17T11:44:44.804Z,13.10
2023-04-17T11:49:48.186Z,13.10
2023-04-17T11:54:59.021Z,13.20
2023-04-17T12:00:12.365Z,13.60
2023-04-17T12:05:15.763Z,14.10
2023-04-17T12:10:20.049Z,14.90
2023-04-17T12:15:22.806Z,16.00
2023-04-17T12:20:26.812Z,17.00
2023-04-17T12:25:31.706Z,18.30
2023-04-17T12:30:36.150Z,17.80
2023-04-17T12:35:39.760Z,16.00
2023-04-17T12:40:45.540Z,14.90
2023-04-17T12:45:48.401Z,14.50
2023-04-17T12:50:51.411Z,14.20
2023-04-17T12:55:55.514Z,14.30
2023-04-17T13:00:58.258Z,14.30
2023-04-17T13:06:01.508Z,14.80
2023-04-17T13:11:05.665Z,15.00
2023-04-17T13:16:08.633Z,14.80
2023-04-17T13:21:11.489Z,14.80
2023-04-17T13:26:15.456Z,14.30
2023-04-17T13:31:19.890Z,13.70
2023-04-17T13:36:22.624Z,13.20
2023-04-17T13:41:26.693Z,13.10
2023-04-17T13:46:29.438Z,12.90
2023-04-17T13:51:32.519Z,12.90
2023-04-17T13:56:36.642Z,12.50
2023-04-17T14:01:39.495Z,12.20
2023-04-17T14:06:44.087Z,12.00
2023-04-17T14:11:48.123Z,11.90
2023-04-17T14:16:51.245Z,11.80
2023-04-17T14:21:56.080Z,11.90
2023-04-17T14:27:01.114Z,11.90
2023-04-17T14:32:05.983Z,11.70
2023-04-17T14:37:16.557Z,11.60
2023-04-17T14:42:20.808Z,11.70
2023-04-17T14:47:26.969Z,11.90
2023-04-17T14:52:31.469Z,12.00
2023-04-17T14:57:40.974Z,12.10
2023-04-17T15:02:46.515Z,12.30
2023-04-17T15:07:52.223Z,12.70
2023-04-17T15:13:10.299Z,12.90
2023-04-17T15:18:22.643Z,12.90
2023-04-17T15:23:44.753Z,12.40
2023-04-17T15:29:21.781Z,12.00
2023-04-17T15:34:52.113Z,11.90
2023-04-17T15:40:12.174Z,11.80
2023-04-17T15:51:25.749Z,11.40
2023-04-17T15:57:26.929Z,11.30
2023-04-17T16:02:52.321Z,11.20
2023-04-17T16:08:09.810Z,11.00
2023-04-17T16:13:44.593Z,10.90
2023-04-17T16:31:37.473Z,10.70
2023-04-17T16:36:50.735Z,10.50
2023-04-17T16:41:56.307Z,10.50
2023-04-17T16:47:13.605Z,10.40
2023-04-17T16:52:19.064Z,10.30
2023-04-17T16:57:30.936Z,10.00
2023-04-17T17:02:44.053Z,10.00
2023-04-17T17:07:46.883Z,10.00
2023-04-17T17:12:49.971Z,10.00
2023-04-17T17:17:54.564Z,10.00
2023-04-17T17:22:57.447Z,9.80
2023-04-17T17:28:00.338Z,9.80
2023-04-17T17:33:04.604Z,9.80
2023-04-17T17:38:07.408Z,9.70
2023-04-17T17:43:11.571Z,9.60
2023-04-17T17:48:16.830Z,9.60
2023-04-17T17:53:21.393Z,9.60
2023-04-17T17:58:54.194Z,9.50
2023-04-17T18:09:30.147Z,9.40
2023-04-17T18:14:37.036Z,9.40
2023-04-17T18:19:42.731Z,9.40
2023-04-17T18:24:46.937Z,9.40
2023-04-17T18:29:49.761Z,9.40
2023-04-17T18:34:52.432Z,9.30
2023-04-17T18:39:56.474Z,9.20
2023-04-17T18:44:59.392Z,9.30
2023-04-17T18:50:05.810Z,9.10
2023-04-17T18:55:11.767Z,9.10
2023-04-17T19:00:16.531Z,9.20
2023-04-17T19:28:00.596Z,9.00
2023-04-17T19:33:14.256Z,9.00
2023-04-17T19:57:37.880Z,9.00
2023-04-17T20:16:26.520Z,8.90
2023-04-17T20:21:45.128Z,8.90
2023-04-17T20:27:14.239Z,8.90
2023-04-17T20:38:34.529Z,8.80
2023-04-17T20:43:37.527Z,8.70
2023-04-17T20:49:07.909Z,8.60
2023-04-17T21:00:35.246Z,8.30
2023-04-17T21:12:06.320Z,8.20
2023-04-17T21:17:09.108Z,8.30
2023-04-17T21:22:12.892Z,8.30
2023-04-17T21:27:17.129Z,8.40
2023-04-17T21:32:19.786Z,8.40
2023-04-17T21:37:22.579Z,8.40
2023-04-17T21:42:27.078Z,8.50
2023-04-17T21:47:29.786Z,8.40
2023-04-17T21:52:32.491Z,8.50
2023-04-17T21:57:36.622Z,8.50
2023-04-17T22:02:39.549Z,8.60
2023-04-17T22:07:51.676Z,8.60
2023-04-17T22:13:01.584Z,8.50
2023-04-17T22:18:04.671Z,8.50
2023-04-17T22:23:08.428Z,8.60
2023-04-17T22:28:12.426Z,8.60
2023-04-17T22:33:15.100Z,8.60
2023-04-17T22:38:18.702Z,8.50
2023-04-17T22:43:22.714Z,8.60
2023-04-17T22:48:25.674Z,8.60
2023-04-17T22:53:28.609Z,8.60
2023-04-17T22:58:34.106Z,8.60
2023-04-17T23:03:37.226Z,8.50
2023-04-17T23:08:40.004Z,8.50
2023-04-17T23:13:44.125Z,8.50
2023-04-17T23:18:46.955Z,8.50
2023-04-17T23:23:49.705Z,8.50
2023-04-17T23:28:53.754Z,8.60
2023-04-17T23:33:56.441Z,8.60
2023-04-17T23:38:59.224Z,8.60
2023-04-17T23:44:04.740Z,8.50
2023-04-17T23:49:08.193Z,8.50
2023-04-17T23:54:11.465Z,8.50
2023-04-17T23:59:15.747Z,8.60
